KDCU/DCU METAR and TAF weather

Enter ICAO airport designator
Station Type Date Time Source
KDCU METAR 2020/04/05 11:53 UTC NOAA

KDCU 051153Z AUTO 00000KT 10SM CLR 13/10 A3003 RMK AO2 SLP166 T01280100 10167 20117 53019 $


Station Type Date Time Source
KDCU Decoded METAR 2020/04/05 11:53 UTC NOAA

PRYOR FIELD, AL, United States (KDCU) 34-39N 086-57W 176M
Apr 05, 2020 - 07:53 AM EDT / 2020.04.05 1153 UTC
Wind: Calm:0
Visibility: 10 mile(s):0
Sky conditions: clear
Temperature: 55.0 F (12.8 C)
Dew Point: 50.0 F (10.0 C)
Relative Humidity: 83%
Pressure (altimeter): 30.03 in. Hg (1016 hPa)
Pressure tendency: 0.06 inches (1.9 hPa) higher than three hours ago
ob: KDCU 051153Z AUTO 00000KT 10SM CLR 13/10 A3003 RMK AO2 SLP166 T01280100 10167 20117 53019
cycle: 12

Station Type Date Time Source
KDCU TAF UTC NOAA

Error!

Example: see airport list